createdAt,value
2023-03-12T00:02:01.115Z,72.13
2023-03-12T00:04:28.570Z,73.47
2023-03-12T00:07:15.627Z,67.57
2023-03-12T00:09:42.428Z,67.93
2023-03-12T00:12:09.557Z,65.03
2023-03-12T00:14:36.437Z,64.43
2023-03-12T00:17:03.323Z,63.20
2023-03-12T00:19:30.958Z,56.05
2023-03-12T00:21:57.918Z,46.03
2023-03-12T00:24:24.786Z,55.80
2023-03-12T00:26:51.531Z,57.55
2023-03-12T00:29:18.265Z,44.70
2023-03-12T00:31:45.619Z,46.53
2023-03-12T00:34:12.454Z,55.08
2023-03-12T00:36:41.402Z,41.70
2023-03-12T00:39:08.356Z,42.88
2023-03-12T00:41:35.153Z,43.28
2023-03-12T00:44:02.041Z,39.72
2023-03-12T00:46:29.101Z,44.55
2023-03-12T00:48:55.917Z,46.08
2023-03-12T00:55:27.599Z,51.70
2023-03-12T00:57:55.524Z,49.78
2023-03-12T01:15:28.115Z,49.67
2023-03-12T01:17:59.962Z,53.30
2023-03-12T06:07:29.007Z,26.45
2023-03-12T06:09:55.992Z,32.15
2023-03-12T06:12:36.569Z,21.02
2023-03-12T06:15:16.065Z,28.42
2023-03-12T06:17:43.124Z,22.05
2023-03-12T06:20:11.601Z,20.52
2023-03-12T06:22:38.811Z,21.95
2023-03-12T06:25:05.833Z,22.85
2023-03-12T06:27:32.943Z,15.18
2023-03-12T06:29:59.751Z,17.35
2023-03-12T06:32:26.525Z,18.33
2023-03-12T06:34:53.528Z,13.40
2023-03-12T06:37:20.220Z,12.20
2023-03-12T06:39:46.983Z,13.75
2023-03-12T06:42:14.867Z,15.15
2023-03-12T06:44:41.720Z,13.65
2023-03-12T06:47:08.870Z,11.13
2023-03-12T06:49:36.819Z,11.50
2023-03-12T06:52:04.322Z,10.38
2023-03-12T06:54:32.101Z,19.08
2023-03-12T06:57:01.996Z,11.98
2023-03-12T06:59:29.455Z,7.97
2023-03-12T07:01:57.183Z,10.32
2023-03-12T07:04:24.375Z,13.77
2023-03-12T07:06:51.816Z,14.27
2023-03-12T07:09:29.089Z,8.73
2023-03-12T07:11:56.290Z,11.93
2023-03-12T07:14:23.990Z,17.92
2023-03-12T07:16:51.579Z,7.95
2023-03-12T07:19:19.768Z,7.45
2023-03-12T07:21:46.893Z,9.82
2023-03-12T07:24:14.122Z,10.70
2023-03-12T07:26:41.113Z,6.22
2023-03-12T07:29:08.397Z,6.28
2023-03-12T07:31:55.606Z,10.85
2023-03-12T07:34:22.632Z,11.95
2023-03-12T07:36:50.900Z,9.00
2023-03-12T07:39:19.514Z,5.65
2023-03-12T07:41:46.846Z,8.32
2023-03-12T07:44:14.130Z,11.82
2023-03-12T07:46:41.276Z,4.65
2023-03-12T07:49:08.624Z,4.90
2023-03-12T07:51:36.010Z,4.13
2023-03-12T07:54:03.145Z,9.30
2023-03-12T07:56:30.336Z,4.88
2023-03-12T07:58:57.925Z,6.70
2023-03-12T08:01:32.225Z,7.22
2023-03-12T08:04:19.921Z,5.50
2023-03-12T08:06:47.284Z,12.75
2023-03-12T08:09:14.672Z,9.52
2023-03-12T08:11:41.714Z,7.47
2023-03-12T08:14:09.405Z,14.20
2023-03-12T08:16:36.885Z,6.30
2023-03-12T08:19:03.802Z,7.30
2023-03-12T08:21:30.872Z,9.38
2023-03-12T08:23:57.928Z,5.90
2023-03-12T08:26:25.175Z,5.97
2023-03-12T08:28:52.125Z,6.88
2023-03-12T08:31:19.161Z,8.27
2023-03-12T08:33:47.455Z,13.25
2023-03-12T08:36:14.798Z,8.65
2023-03-12T08:38:41.952Z,8.40
2023-03-12T08:41:08.981Z,9.57
2023-03-12T08:43:36.136Z,11.15
2023-03-12T08:46:03.889Z,6.32
2023-03-12T08:48:48.436Z,9.65
2023-03-12T08:51:16.971Z,11.02
2023-03-12T08:53:45.322Z,18.02
2023-03-12T08:56:12.456Z,8.85
2023-03-12T08:58:39.530Z,12.07
2023-03-12T09:01:13.447Z,10.13
2023-03-12T09:06:51.010Z,12.25
2023-03-12T09:09:18.570Z,10.63
2023-03-12T09:11:47.375Z,8.70
2023-03-12T09:14:57.550Z,9.40
2023-03-12T09:17:02.578Z,8.70
2023-03-12T09:19:30.349Z,12.18
2023-03-12T09:21:58.209Z,8.00
2023-03-12T09:24:25.569Z,7.15
2023-03-12T09:26:53.069Z,5.78
2023-03-12T09:29:20.115Z,9.00
2023-03-12T09:31:47.022Z,8.60
2023-03-12T09:40:52.276Z,10.30
2023-03-12T09:43:32.170Z,11.27
2023-03-12T09:46:14.008Z,10.52
2023-03-12T09:48:48.532Z,19.77
2023-03-12T09:51:38.190Z,10.20
2023-03-12T09:54:13.686Z,10.13
2023-03-12T09:57:01.549Z,10.85
2023-03-12T10:02:40.507Z,8.82
2023-03-12T10:11:32.453Z,19.35
2023-03-12T10:14:25.373Z,14.00
2023-03-12T10:17:15.464Z,14.70
2023-03-12T10:19:53.215Z,13.65
2023-03-12T10:25:24.627Z,13.35
2023-03-12T10:27:59.244Z,13.60
2023-03-12T10:30:30.041Z,16.63
2023-03-12T10:33:04.782Z,12.23
2023-03-12T10:35:34.704Z,14.52
2023-03-12T10:38:07.160Z,15.23
2023-03-12T10:40:40.160Z,20.58
2023-03-12T10:45:56.383Z,11.07
2023-03-12T10:48:24.934Z,10.93
2023-03-12T10:51:11.503Z,15.50
2023-03-12T10:53:48.416Z,9.52
2023-03-12T10:56:23.536Z,14.57
2023-03-12T11:01:56.394Z,18.20
2023-03-12T11:04:30.448Z,15.73
2023-03-12T11:07:15.735Z,12.65
2023-03-12T11:09:42.940Z,15.25
2023-03-12T11:12:26.981Z,12.90
2023-03-12T11:14:54.499Z,13.77
2023-03-12T11:17:24.132Z,17.15
2023-03-12T11:19:51.791Z,10.40
2023-03-12T11:22:32.510Z,12.95
2023-03-12T11:25:04.539Z,21.45
2023-03-12T11:27:33.375Z,19.85
2023-03-12T11:33:02.921Z,13.48
2023-03-12T11:35:46.263Z,16.92
2023-03-12T11:38:18.962Z,13.27
2023-03-12T11:41:04.784Z,16.05
2023-03-12T11:43:53.297Z,21.50
2023-03-12T11:46:24.330Z,17.80
2023-03-12T11:48:57.604Z,19.50
2023-03-12T11:51:36.479Z,18.48
2023-03-12T11:54:04.934Z,22.77
2023-03-12T11:56:43.931Z,13.88
2023-03-12T11:59:49.496Z,16.35
2023-03-12T12:02:28.473Z,13.38
2023-03-12T12:05:01.703Z,14.18
2023-03-12T12:07:29.079Z,17.50
2023-03-12T12:10:02.496Z,13.55
2023-03-12T12:12:48.342Z,23.27
2023-03-12T12:15:36.374Z,14.88
2023-03-12T12:18:30.128Z,16.23
2023-03-12T12:23:31.101Z,22.45
2023-03-12T12:26:09.314Z,13.57
2023-03-12T12:28:44.856Z,15.68
2023-03-12T12:31:34.093Z,16.23
2023-03-12T12:34:07.931Z,20.95
2023-03-12T12:36:35.908Z,17.05
2023-03-12T12:39:16.099Z,18.58
2023-03-12T12:41:46.549Z,17.77
2023-03-12T12:44:28.737Z,15.75
2023-03-12T12:47:04.006Z,14.65
2023-03-12T12:49:34.157Z,14.52
2023-03-12T12:52:03.547Z,21.08
2023-03-12T12:54:36.811Z,17.90
2023-03-12T12:57:09.055Z,22.92
2023-03-12T12:59:40.019Z,15.25
2023-03-12T13:02:28.432Z,11.88
2023-03-12T13:04:56.568Z,17.98
2023-03-12T13:07:25.792Z,17.60
2023-03-12T13:09:56.770Z,19.77
2023-03-12T13:12:36.277Z,17.92
2023-03-12T13:15:23.498Z,14.15
2023-03-12T13:18:03.133Z,15.35
2023-03-12T13:20:35.730Z,12.85
2023-03-12T13:23:03.000Z,17.02
2023-03-12T13:25:41.492Z,14.80
2023-03-12T13:28:30.390Z,21.05
2023-03-12T13:30:58.882Z,19.42
2023-03-12T13:33:42.297Z,14.25
2023-03-12T13:36:12.397Z,13.68
2023-03-12T13:38:53.821Z,19.10
2023-03-12T13:41:50.172Z,18.48
2023-03-12T13:44:23.437Z,21.60
2023-03-12T13:47:43.113Z,20.60
2023-03-12T13:50:19.024Z,24.63
2023-03-12T13:53:11.514Z,21.42
2023-03-12T13:55:39.442Z,12.68
2023-03-12T13:58:16.017Z,18.45
2023-03-12T14:00:57.052Z,11.60
2023-03-12T14:03:24.577Z,15.60
2023-03-12T14:05:58.604Z,14.88
2023-03-12T14:08:31.691Z,19.95
2023-03-12T14:10:59.441Z,17.92
2023-03-12T14:13:29.386Z,21.85
2023-03-12T14:15:56.871Z,18.27
2023-03-12T14:18:25.862Z,20.50
2023-03-12T14:20:55.121Z,17.00
2023-03-12T14:23:25.308Z,24.40
2023-03-12T14:25:55.891Z,20.65
2023-03-12T14:28:24.990Z,16.70
2023-03-12T14:30:58.168Z,16.58
2023-03-12T14:33:26.366Z,14.87
2023-03-12T14:36:01.941Z,14.95
2023-03-12T14:38:50.931Z,20.02
2023-03-12T14:41:21.121Z,24.83
2023-03-12T14:43:51.692Z,16.48
2023-03-12T14:46:20.298Z,19.15
2023-03-12T14:48:48.393Z,20.00
2023-03-12T14:51:26.078Z,19.85
2023-03-12T14:53:53.370Z,15.25
2023-03-12T14:56:30.338Z,13.07
2023-03-12T14:58:58.817Z,18.30
2023-03-12T15:01:27.792Z,13.88
2023-03-12T15:03:57.528Z,17.02
2023-03-12T15:06:28.155Z,17.42
2023-03-12T15:08:55.476Z,19.98
2023-03-12T15:11:24.125Z,21.75
2023-03-12T15:13:52.203Z,18.67
2023-03-12T15:16:19.822Z,18.50
2023-03-12T15:18:48.948Z,13.40
2023-03-12T15:21:16.336Z,20.08
2023-03-12T15:23:44.792Z,26.58
2023-03-12T15:26:21.231Z,16.95
2023-03-12T15:29:14.952Z,14.48
2023-03-12T15:31:47.056Z,17.75
2023-03-12T15:34:26.271Z,58.03
2023-03-12T15:36:55.111Z,19.58
2023-03-12T15:39:32.355Z,18.13
2023-03-12T15:42:07.876Z,18.73
2023-03-12T15:44:45.433Z,13.30
2023-03-12T15:47:18.285Z,13.45
2023-03-12T15:49:49.599Z,18.17
2023-03-12T15:52:22.194Z,16.33
2023-03-12T15:55:01.220Z,18.58
2023-03-12T15:57:47.321Z,10.73
2023-03-12T16:00:14.639Z,18.48
2023-03-12T16:02:55.338Z,18.65
2023-03-12T16:05:25.139Z,18.75
2023-03-12T16:07:52.322Z,13.98
2023-03-12T16:10:20.145Z,16.00
2023-03-12T16:12:47.585Z,28.63
2023-03-12T16:15:22.339Z,14.55
2023-03-12T16:17:49.819Z,12.93
2023-03-12T16:20:18.061Z,18.17
2023-03-12T16:22:45.141Z,17.17
2023-03-12T16:25:13.327Z,15.88
2023-03-12T16:27:46.521Z,14.40
2023-03-12T16:30:15.617Z,16.70
2023-03-12T16:32:42.772Z,16.33
2023-03-12T16:35:15.470Z,18.15
2023-03-12T16:37:42.878Z,18.87
2023-03-12T16:40:11.816Z,22.15
2023-03-12T16:42:44.456Z,18.85
2023-03-12T16:45:14.224Z,19.13
2023-03-12T16:47:42.691Z,17.55
2023-03-12T16:50:16.992Z,17.50
2023-03-12T16:52:47.156Z,20.73
2023-03-12T16:55:15.108Z,17.88
2023-03-12T16:58:02.022Z,19.70
2023-03-12T17:00:39.383Z,18.40
2023-03-12T17:03:39.580Z,20.88
2023-03-12T17:06:14.013Z,20.10
2023-03-12T17:08:43.695Z,20.10
2023-03-12T17:11:19.524Z,17.35
2023-03-12T17:13:49.282Z,24.42
2023-03-12T17:16:17.271Z,25.02
2023-03-12T17:18:45.888Z,27.20
2023-03-12T17:21:34.015Z,27.15
2023-03-12T17:24:01.199Z,27.95
2023-03-12T17:26:28.425Z,23.88
2023-03-12T17:28:56.590Z,47.15
2023-03-12T17:31:25.164Z,27.50
2023-03-12T17:33:52.466Z,26.08
2023-03-12T17:36:19.731Z,40.25
2023-03-12T17:38:48.958Z,21.55
2023-03-12T17:41:26.002Z,21.23
2023-03-12T17:43:55.131Z,28.23
2023-03-12T17:46:22.473Z,19.35
2023-03-12T17:48:49.722Z,30.10
2023-03-12T17:51:17.016Z,28.70
2023-03-12T17:53:50.463Z,17.90
2023-03-12T17:56:32.580Z,25.50
2023-03-12T17:59:01.329Z,29.27
2023-03-12T18:01:29.420Z,28.15
2023-03-12T18:04:01.507Z,21.42
2023-03-12T18:06:29.301Z,22.00
2023-03-12T18:08:56.599Z,25.27
2023-03-12T18:11:23.879Z,33.78
2023-03-12T18:13:53.022Z,19.33
2023-03-12T18:16:21.462Z,24.17
2023-03-12T18:18:50.985Z,33.95
2023-03-12T18:21:21.475Z,25.42
2023-03-12T18:23:48.758Z,25.73
2023-03-12T18:26:16.119Z,34.60
2023-03-12T18:28:43.303Z,20.13
2023-03-12T18:31:11.263Z,27.40
2023-03-12T18:33:39.628Z,37.65
2023-03-12T18:36:08.894Z,33.35
2023-03-12T18:39:10.332Z,32.75
2023-03-12T18:41:41.848Z,24.08
2023-03-12T18:44:09.210Z,20.02
2023-03-12T18:46:40.190Z,32.92
2023-03-12T18:49:12.993Z,29.85
2023-03-12T19:02:39.218Z,23.88
2023-03-12T19:05:12.692Z,25.92
2023-03-12T19:10:33.486Z,30.70
2023-03-12T19:13:02.212Z,28.23
2023-03-12T19:21:07.936Z,30.00
2023-03-12T19:23:36.726Z,32.33
2023-03-12T19:26:04.957Z,27.60
2023-03-12T19:28:32.868Z,21.23
2023-03-12T19:31:02.084Z,28.98
2023-03-12T19:33:31.320Z,34.05
2023-03-12T20:05:54.022Z,27.52
2023-03-12T20:08:22.510Z,29.50
2023-03-12T20:10:49.664Z,27.73
2023-03-12T20:13:17.858Z,20.65
2023-03-12T20:15:46.957Z,19.42
2023-03-12T20:18:14.452Z,22.90
2023-03-12T20:20:41.885Z,31.10
2023-03-12T20:23:08.982Z,24.63
2023-03-12T20:25:38.685Z,23.70
2023-03-12T20:28:05.492Z,28.00
2023-03-12T20:30:32.489Z,19.48
2023-03-12T20:32:59.478Z,23.52
2023-03-12T20:35:26.325Z,28.70
2023-03-12T20:37:53.262Z,17.08
2023-03-12T20:40:20.029Z,21.48
2023-03-12T20:42:46.756Z,21.63
2023-03-12T20:45:13.672Z,21.00
2023-03-12T20:47:40.373Z,21.40
2023-03-12T20:50:07.682Z,30.05
2023-03-12T20:52:34.356Z,21.70
2023-03-12T20:55:01.060Z,22.52
2023-03-12T20:57:28.240Z,24.98
2023-03-12T20:59:55.258Z,24.27
2023-03-12T21:02:22.162Z,18.00
2023-03-12T21:04:49.566Z,20.77
2023-03-12T21:07:16.337Z,24.05
2023-03-12T21:09:43.014Z,25.17
2023-03-12T21:12:09.672Z,20.80
2023-03-12T21:14:36.786Z,19.33
2023-03-12T21:17:03.809Z,24.25
2023-03-12T21:19:30.697Z,24.73
2023-03-12T21:21:57.442Z,22.13
2023-03-12T21:24:24.146Z,21.40
2023-03-12T21:26:50.838Z,20.33
2023-03-12T21:29:17.857Z,27.17
2023-03-12T21:31:44.649Z,21.58
2023-03-12T21:34:11.378Z,26.77
2023-03-12T21:36:38.167Z,20.40
2023-03-12T21:39:04.933Z,19.90
2023-03-12T21:41:32.104Z,24.10
2023-03-12T21:44:00.572Z,27.08
2023-03-12T21:46:28.001Z,28.23
2023-03-12T21:48:54.881Z,20.17
2023-03-12T21:51:22.780Z,21.67
2023-03-12T21:53:53.443Z,21.42
2023-03-12T21:56:20.254Z,21.20
2023-03-12T21:58:46.981Z,19.15
2023-03-12T22:01:15.356Z,19.17
2023-03-12T22:03:42.703Z,22.83
2023-03-12T22:06:10.199Z,25.80
2023-03-12T22:08:37.153Z,26.63
2023-03-12T22:11:04.831Z,21.42
2023-03-12T22:13:31.689Z,20.23
2023-03-12T22:15:59.756Z,25.73
2023-03-12T22:18:27.341Z,22.67
2023-03-12T22:20:54.954Z,24.73
2023-03-12T22:23:27.320Z,35.75
2023-03-12T22:25:54.076Z,23.42
2023-03-12T22:28:20.975Z,23.33
2023-03-12T22:30:47.930Z,25.98
2023-03-12T22:33:14.639Z,18.67
2023-03-12T22:35:48.186Z,21.83
2023-03-12T22:38:15.009Z,17.73
2023-03-12T22:40:41.853Z,21.90
2023-03-12T22:43:08.695Z,25.17
2023-03-12T22:45:35.839Z,20.95
2023-03-12T22:48:02.720Z,20.70
2023-03-12T22:50:29.875Z,21.55
2023-03-12T22:53:24.991Z,21.77
2023-03-12T22:55:58.908Z,23.45
2023-03-12T22:58:26.197Z,14.68
2023-03-12T23:01:01.457Z,25.40
2023-03-12T23:03:29.331Z,18.25
2023-03-12T23:05:57.293Z,20.17
2023-03-12T23:08:24.361Z,22.88
2023-03-12T23:10:52.197Z,26.88
2023-03-12T23:13:18.943Z,22.98
2023-03-12T23:20:17.403Z,19.20
